createdAt,value
2019-03-31T00:00:32.698Z,0.77
2019-03-31T00:03:03.603Z,0.70
2019-03-31T00:05:37.153Z,0.80
2019-03-31T00:08:06.874Z,0.80
2019-03-31T00:10:37.572Z,0.80
2019-03-31T00:13:08.308Z,0.80
2019-03-31T00:15:39.101Z,0.80
2019-03-31T00:18:09.891Z,0.80
2019-03-31T00:20:40.702Z,0.80
2019-03-31T00:23:11.483Z,0.80
2019-03-31T00:25:48.941Z,0.80
2019-03-31T00:28:20.047Z,0.80
2019-03-31T00:30:51.153Z,0.80
2019-03-31T00:33:22.010Z,0.80
2019-03-31T00:35:52.800Z,0.70
2019-03-31T00:38:23.649Z,0.77
2019-03-31T00:40:54.464Z,0.80
2019-03-31T00:43:25.258Z,0.80
2019-03-31T00:45:56.091Z,0.80
2019-03-31T00:48:26.882Z,0.80
2019-03-31T00:50:57.654Z,0.80
2019-03-31T00:53:28.482Z,0.80
2019-03-31T00:55:59.332Z,0.80
2019-03-31T00:58:30.145Z,0.80
2019-03-31T01:01:36.197Z,0.80
2019-03-31T01:04:02.126Z,0.80
2019-03-31T01:06:33.890Z,0.80
2019-03-31T01:09:09.094Z,0.80
2019-03-31T01:11:39.852Z,0.80
2019-03-31T01:14:11.142Z,0.80
2019-03-31T01:16:41.855Z,0.80
2019-03-31T01:19:13.382Z,0.80
2019-03-31T01:21:44.053Z,0.70
2019-03-31T01:24:14.984Z,0.80
2019-03-31T01:26:46.018Z,0.80
2019-03-31T01:29:17.564Z,0.80
2019-03-31T01:31:50.465Z,0.80
2019-03-31T01:34:21.609Z,0.80
2019-03-31T01:36:52.810Z,0.73
2019-03-31T01:39:26.952Z,0.80
2019-03-31T01:41:57.767Z,0.80
2019-03-31T01:44:28.622Z,0.80
2019-03-31T01:46:59.511Z,0.80
2019-03-31T01:49:30.263Z,0.80
2019-03-31T01:52:01.097Z,0.80
2019-03-31T01:54:31.870Z,0.80
2019-03-31T01:57:02.620Z,0.80
2019-03-31T01:59:33.443Z,0.80
2019-03-31T02:02:04.887Z,0.80
2019-03-31T02:04:35.943Z,0.80
2019-03-31T02:07:08.054Z,0.80
2019-03-31T02:09:38.901Z,0.80
2019-03-31T02:12:09.802Z,0.80
2019-03-31T02:14:40.676Z,0.80
2019-03-31T02:17:11.583Z,0.80
2019-03-31T02:19:42.371Z,0.80
2019-03-31T02:22:13.226Z,0.80
2019-03-31T02:24:44.059Z,0.80
2019-03-31T02:27:14.875Z,0.80
2019-03-31T02:29:45.626Z,0.80
2019-03-31T02:32:24.151Z,0.80
2019-03-31T02:34:48.900Z,0.80
2019-03-31T02:37:19.794Z,0.80
2019-03-31T02:39:50.649Z,0.80
2019-03-31T02:42:21.363Z,0.80
2019-03-31T02:44:52.169Z,0.80
2019-03-31T02:47:23.013Z,0.80
2019-03-31T02:49:53.814Z,0.80
2019-03-31T02:52:24.574Z,0.80
2019-03-31T02:54:55.357Z,0.80
2019-03-31T02:57:26.875Z,0.80
2019-03-31T02:59:58.358Z,0.80
2019-03-31T03:02:41.443Z,0.80
2019-03-31T03:05:18.422Z,0.80
2019-03-31T03:07:39.465Z,0.80
2019-03-31T03:10:10.757Z,0.80
2019-03-31T03:12:45.212Z,0.80
2019-03-31T03:15:27.054Z,0.90
2019-03-31T03:17:57.835Z,0.80
2019-03-31T03:20:28.765Z,0.80
2019-03-31T03:22:59.493Z,0.80
2019-03-31T03:25:30.369Z,0.80
2019-03-31T03:28:01.159Z,0.80
2019-03-31T03:30:32.057Z,0.90
2019-03-31T03:33:17.204Z,0.80
2019-03-31T03:35:35.510Z,0.80
2019-03-31T03:38:06.410Z,0.80
2019-03-31T03:40:37.178Z,0.90
2019-03-31T03:43:08.050Z,0.80
2019-03-31T03:45:38.833Z,0.80
2019-03-31T03:48:09.573Z,0.80
2019-03-31T03:50:40.346Z,0.80
2019-03-31T03:53:11.157Z,0.80
2019-03-31T03:55:41.819Z,0.80
2019-03-31T03:58:12.528Z,0.80
2019-03-31T04:00:43.240Z,0.80
2019-03-31T04:03:28.953Z,0.70
2019-03-31T04:05:46.527Z,0.80
2019-03-31T04:08:17.171Z,0.80
2019-03-31T04:11:20.770Z,0.80
2019-03-31T04:13:49.505Z,0.80
2019-03-31T04:16:20.320Z,0.80
2019-03-31T04:18:51.102Z,0.80
2019-03-31T04:21:21.909Z,0.80
2019-03-31T04:23:52.590Z,0.80
2019-03-31T04:26:23.253Z,0.80
2019-03-31T04:28:53.935Z,0.80
2019-03-31T04:31:24.752Z,0.70
2019-03-31T04:33:55.480Z,0.80
2019-03-31T04:36:26.131Z,0.80
2019-03-31T04:39:00.201Z,0.80
2019-03-31T04:41:29.358Z,0.80
2019-03-31T04:44:00.089Z,0.80
2019-03-31T04:46:30.785Z,0.80
2019-03-31T04:49:01.523Z,0.80
2019-03-31T04:51:32.256Z,0.80
2019-03-31T04:54:03.019Z,0.80
2019-03-31T04:56:33.737Z,0.80
2019-03-31T04:59:04.576Z,0.80
2019-03-31T05:01:35.341Z,0.80
2019-03-31T05:04:06.131Z,0.80
2019-03-31T05:06:36.856Z,0.80
2019-03-31T05:09:08.011Z,0.80
2019-03-31T05:11:38.870Z,0.80
2019-03-31T05:14:09.624Z,0.80
2019-03-31T05:16:40.372Z,0.80
2019-03-31T05:19:11.053Z,0.80
2019-03-31T05:21:41.932Z,0.80
2019-03-31T05:24:12.847Z,0.80
2019-03-31T05:26:43.616Z,0.80
2019-03-31T05:29:14.432Z,0.80
2019-03-31T05:31:45.263Z,0.70
2019-03-31T05:34:19.294Z,0.80
2019-03-31T05:36:48.551Z,0.80
2019-03-31T05:39:19.251Z,0.80
2019-03-31T05:41:50.103Z,0.80
2019-03-31T05:44:20.764Z,0.80
2019-03-31T05:46:51.491Z,0.80
2019-03-31T05:49:22.426Z,0.83
2019-03-31T05:51:53.151Z,0.80
2019-03-31T05:54:24.056Z,0.80
2019-03-31T05:56:54.927Z,0.80
2019-03-31T05:59:25.683Z,0.80
2019-03-31T06:01:56.391Z,0.80
2019-03-31T06:04:32.997Z,0.80
2019-03-31T06:06:59.620Z,0.80
2019-03-31T06:09:30.466Z,0.80
2019-03-31T06:12:01.188Z,0.80
2019-03-31T06:14:31.872Z,0.80
2019-03-31T06:17:02.734Z,0.70
2019-03-31T06:19:33.543Z,0.80
2019-03-31T06:22:04.371Z,0.80
2019-03-31T06:24:35.230Z,0.80
2019-03-31T06:27:06.102Z,0.80
2019-03-31T06:29:36.860Z,0.80
2019-03-31T06:32:07.716Z,0.80
2019-03-31T06:34:47.419Z,0.80
2019-03-31T06:37:10.973Z,0.80
2019-03-31T06:39:41.812Z,0.80
2019-03-31T06:42:12.542Z,0.80
2019-03-31T06:44:43.304Z,0.80
2019-03-31T06:47:14.105Z,0.80
2019-03-31T06:49:44.924Z,0.80
2019-03-31T06:52:15.616Z,0.80
2019-03-31T06:54:46.295Z,0.80
2019-03-31T06:57:17.085Z,0.80
2019-03-31T06:59:48.026Z,0.73
2019-03-31T07:02:18.900Z,0.80
2019-03-31T07:05:00.390Z,0.80
2019-03-31T07:07:23.970Z,0.80
2019-03-31T07:09:55.024Z,0.70
2019-03-31T07:12:25.922Z,0.80
2019-03-31T07:14:56.847Z,0.80
2019-03-31T07:17:27.593Z,0.80
2019-03-31T07:19:58.375Z,0.77
2019-03-31T07:22:29.275Z,0.80
2019-03-31T07:25:00.005Z,0.80
2019-03-31T07:27:30.867Z,0.80
2019-03-31T07:30:01.617Z,0.80
2019-03-31T07:32:32.485Z,0.80
2019-03-31T07:35:17.561Z,0.70
2019-03-31T07:37:46.563Z,0.80
2019-03-31T07:40:11.152Z,0.80
2019-03-31T07:42:42.046Z,0.80
2019-03-31T07:45:13.872Z,0.80
2019-03-31T07:47:44.871Z,0.80
2019-03-31T07:50:16.171Z,0.70
2019-03-31T07:52:47.037Z,0.73
2019-03-31T07:55:19.013Z,0.70
2019-03-31T07:57:54.541Z,0.73
2019-03-31T08:00:25.682Z,0.80
2019-03-31T08:02:56.454Z,0.70
2019-03-31T08:05:33.343Z,0.73
2019-03-31T08:07:59.705Z,0.70
2019-03-31T08:10:30.485Z,0.70
2019-03-31T08:13:01.194Z,0.70
2019-03-31T08:15:31.957Z,0.70
2019-03-31T08:18:02.855Z,0.70
2019-03-31T08:20:33.614Z,0.70
2019-03-31T08:23:04.393Z,0.70
2019-03-31T08:25:35.351Z,0.70
2019-03-31T08:28:06.190Z,0.70
2019-03-31T08:30:37.021Z,0.70
2019-03-31T08:33:07.737Z,0.70
2019-03-31T08:35:47.210Z,0.70
2019-03-31T08:38:11.035Z,0.70
2019-03-31T08:40:41.782Z,0.70
2019-03-31T08:43:12.611Z,0.70
2019-03-31T08:45:43.381Z,0.70
2019-03-31T08:48:14.105Z,0.60
2019-03-31T08:50:45.029Z,0.70
2019-03-31T08:53:15.879Z,0.70
2019-03-31T08:55:46.621Z,0.70
2019-03-31T08:58:17.493Z,0.70
2019-03-31T09:00:57.509Z,0.70
2019-03-31T09:03:28.393Z,0.70
2019-03-31T09:06:02.061Z,0.63
2019-03-31T09:08:31.862Z,0.70
2019-03-31T09:11:02.566Z,0.70
2019-03-31T09:13:33.349Z,0.60
2019-03-31T09:16:04.087Z,0.60
2019-03-31T09:18:34.861Z,0.70
2019-03-31T09:21:05.582Z,0.63
2019-03-31T09:23:36.352Z,0.70
2019-03-31T09:26:07.177Z,0.60
2019-03-31T09:28:37.999Z,0.67
2019-03-31T09:31:08.781Z,0.70
2019-03-31T09:33:39.742Z,0.60
2019-03-31T09:36:16.350Z,0.70
2019-03-31T09:38:43.186Z,0.60
2019-03-31T09:41:13.879Z,0.60
2019-03-31T09:43:44.800Z,0.70
2019-03-31T09:46:15.504Z,0.70
2019-03-31T09:48:46.346Z,0.70
2019-03-31T09:51:17.180Z,0.60
2019-03-31T09:53:47.939Z,0.60
2019-03-31T09:56:18.774Z,0.70
2019-03-31T09:58:49.627Z,0.60
2019-03-31T10:01:20.493Z,0.60
2019-03-31T10:03:51.279Z,0.60
2019-03-31T10:06:30.089Z,0.60
2019-03-31T10:08:55.291Z,0.70
2019-03-31T10:11:25.984Z,0.70
2019-03-31T10:13:56.740Z,0.60
2019-03-31T10:16:27.592Z,0.60
2019-03-31T10:18:58.330Z,0.70
2019-03-31T10:21:29.204Z,0.70
2019-03-31T10:23:59.918Z,0.60
2019-03-31T10:26:32.248Z,0.60
2019-03-31T10:29:03.156Z,0.60
2019-03-31T10:31:36.323Z,0.60
2019-03-31T10:34:07.083Z,0.60
2019-03-31T10:36:44.476Z,0.60
2019-03-31T10:39:10.852Z,0.60
2019-03-31T10:41:41.590Z,0.60
2019-03-31T10:44:12.564Z,0.60
2019-03-31T10:46:43.461Z,0.60
2019-03-31T10:49:14.278Z,0.60
2019-03-31T10:51:45.124Z,0.60
2019-03-31T10:54:15.851Z,0.60
2019-03-31T10:56:46.616Z,0.60
2019-03-31T10:59:17.370Z,0.60
2019-03-31T11:01:48.209Z,0.60
2019-03-31T11:04:18.951Z,0.60
2019-03-31T11:06:58.821Z,0.60
2019-03-31T11:09:22.364Z,0.60
2019-03-31T11:11:53.124Z,0.60
2019-03-31T11:14:24.002Z,0.60
2019-03-31T11:16:54.743Z,0.60
2019-03-31T11:19:25.517Z,0.60
2019-03-31T11:22:15.259Z,0.60
2019-03-31T11:24:46.054Z,0.60
2019-03-31T11:27:16.817Z,0.60
2019-03-31T11:29:47.680Z,0.60
2019-03-31T11:32:18.355Z,0.60
2019-03-31T11:34:49.240Z,0.60
2019-03-31T11:37:20.044Z,0.60
2019-03-31T11:39:50.862Z,0.60
2019-03-31T11:42:21.684Z,0.60
2019-03-31T11:44:52.407Z,0.50
2019-03-31T11:47:23.234Z,0.50
2019-03-31T11:49:54.019Z,0.60
2019-03-31T11:52:24.749Z,0.60
2019-03-31T11:54:55.504Z,0.50
2019-03-31T11:57:26.349Z,0.60
2019-03-31T11:59:57.109Z,0.50
2019-03-31T12:02:28.026Z,0.50
2019-03-31T12:04:58.828Z,0.60
2019-03-31T12:07:29.782Z,0.60
2019-03-31T12:10:00.568Z,0.60
2019-03-31T12:12:31.285Z,0.60
2019-03-31T12:15:02.053Z,0.60
2019-03-31T12:17:32.866Z,0.60
2019-03-31T12:20:04.066Z,0.50
2019-03-31T12:22:34.770Z,0.50
2019-03-31T12:25:06.028Z,0.57
2019-03-31T12:27:36.701Z,0.50
2019-03-31T12:30:07.998Z,0.50
2019-03-31T12:32:39.026Z,0.50
2019-03-31T12:35:10.109Z,0.50
2019-03-31T12:37:43.427Z,0.50
2019-03-31T12:40:29.075Z,0.57
2019-03-31T12:43:00.094Z,0.50
2019-03-31T12:45:31.032Z,0.50
2019-03-31T12:48:01.820Z,0.50
2019-03-31T12:50:32.561Z,0.50
2019-03-31T12:53:03.549Z,0.50
2019-03-31T12:55:34.379Z,0.50
2019-03-31T12:58:05.218Z,0.50
2019-03-31T13:00:36.078Z,0.50
2019-03-31T13:03:06.900Z,0.50
2019-03-31T13:05:38.045Z,0.60
2019-03-31T13:08:08.893Z,0.50
2019-03-31T13:10:39.728Z,0.50
2019-03-31T13:13:10.487Z,0.50
2019-03-31T13:15:41.320Z,0.60
2019-03-31T13:18:12.199Z,0.57
2019-03-31T13:20:43.080Z,0.50
2019-03-31T13:23:13.987Z,0.50
2019-03-31T13:25:44.792Z,0.60
2019-03-31T13:28:15.491Z,0.50
2019-03-31T13:30:46.320Z,0.50
2019-03-31T13:33:17.011Z,0.40
2019-03-31T13:35:47.883Z,0.50
2019-03-31T13:38:18.657Z,0.60
2019-03-31T13:40:50.640Z,0.53
2019-03-31T13:43:21.496Z,0.60
2019-03-31T13:45:52.332Z,0.50
2019-03-31T13:48:23.103Z,0.50
2019-03-31T13:50:53.822Z,0.50
2019-03-31T13:53:24.549Z,0.40
2019-03-31T13:55:55.335Z,0.50
2019-03-31T13:58:26.604Z,0.50
2019-03-31T14:00:58.595Z,0.50
2019-03-31T14:03:29.403Z,0.50
2019-03-31T14:06:00.269Z,0.40
2019-03-31T14:08:31.063Z,0.40
2019-03-31T14:11:02.290Z,0.50
2019-03-31T14:13:33.195Z,0.50
2019-03-31T14:16:03.919Z,0.50
2019-03-31T14:18:34.700Z,0.50
2019-03-31T14:21:05.445Z,0.50
2019-03-31T14:23:36.183Z,0.50
2019-03-31T14:26:07.093Z,0.50
2019-03-31T14:28:37.915Z,0.50
2019-03-31T14:31:08.809Z,0.50
2019-03-31T14:33:39.525Z,0.50
2019-03-31T14:36:10.381Z,0.50
2019-03-31T14:38:41.067Z,0.50
2019-03-31T14:41:11.931Z,0.50
2019-03-31T14:43:42.709Z,0.40
2019-03-31T14:46:13.559Z,0.50
2019-03-31T14:48:44.387Z,0.50
2019-03-31T14:51:15.185Z,0.50
2019-03-31T14:53:46.067Z,0.50
2019-03-31T14:56:16.927Z,0.50
2019-03-31T14:58:47.694Z,0.50
2019-03-31T15:01:21.089Z,0.50
2019-03-31T15:03:51.000Z,0.60
2019-03-31T15:06:21.783Z,0.60
2019-03-31T15:08:54.602Z,0.50
2019-03-31T15:11:25.224Z,0.53
2019-03-31T15:13:56.099Z,0.50
2019-03-31T15:16:26.854Z,0.50
2019-03-31T15:18:57.655Z,0.50
2019-03-31T15:21:28.505Z,0.60
2019-03-31T15:23:59.294Z,0.50
2019-03-31T15:26:30.044Z,0.50
2019-03-31T15:29:00.781Z,0.60
2019-03-31T15:31:31.599Z,0.53
2019-03-31T15:34:02.304Z,0.60
2019-03-31T15:36:33.097Z,0.60
2019-03-31T15:39:09.039Z,0.60
2019-03-31T15:41:38.504Z,0.60
2019-03-31T15:44:09.383Z,0.60
2019-03-31T15:46:40.165Z,0.50
2019-03-31T15:49:10.825Z,0.60
2019-03-31T15:51:41.722Z,0.60
2019-03-31T15:54:12.536Z,0.60
2019-03-31T15:56:43.278Z,0.60
2019-03-31T15:59:14.041Z,0.60
2019-03-31T16:01:44.833Z,0.50
2019-03-31T16:04:15.607Z,0.60
2019-03-31T16:06:46.398Z,0.50
2019-03-31T16:09:23.285Z,0.60
2019-03-31T16:11:54.047Z,0.60
2019-03-31T16:14:20.882Z,0.60
2019-03-31T16:16:51.187Z,0.60
2019-03-31T16:19:21.550Z,0.60
2019-03-31T16:21:51.717Z,0.60
2019-03-31T16:24:35.227Z,0.60
2019-03-31T16:27:05.641Z,0.60
2019-03-31T16:29:35.889Z,0.57
2019-03-31T16:32:06.147Z,0.60
2019-03-31T16:34:36.317Z,0.60
2019-03-31T16:37:06.554Z,0.60
2019-03-31T16:39:38.128Z,0.60
2019-03-31T16:42:08.527Z,0.60
2019-03-31T16:44:38.742Z,0.60
2019-03-31T16:47:09.122Z,0.60
2019-03-31T16:49:39.356Z,0.60
2019-03-31T16:52:09.800Z,0.60
2019-03-31T16:54:40.138Z,0.60
2019-03-31T16:57:10.424Z,0.60
2019-03-31T16:59:40.590Z,0.50
2019-03-31T17:02:10.802Z,0.60
2019-03-31T17:04:41.123Z,0.60
2019-03-31T17:07:11.302Z,0.60
2019-03-31T17:09:51.298Z,0.60
2019-03-31T17:12:13.502Z,0.60
2019-03-31T17:14:43.810Z,0.60
2019-03-31T17:17:14.108Z,0.50
2019-03-31T17:19:44.422Z,0.60
2019-03-31T17:22:14.610Z,0.60
2019-03-31T17:24:44.876Z,0.60
2019-03-31T17:27:15.099Z,0.60
2019-03-31T17:29:45.437Z,0.60
2019-03-31T17:32:15.770Z,0.60
2019-03-31T17:34:46.027Z,0.60
2019-03-31T17:37:16.348Z,0.60
2019-03-31T17:39:46.637Z,0.60
2019-03-31T17:42:16.929Z,0.60
2019-03-31T17:44:47.101Z,0.60
2019-03-31T17:47:17.453Z,0.70
2019-03-31T17:49:47.619Z,0.60
2019-03-31T17:52:17.855Z,0.70
2019-03-31T17:54:48.062Z,0.60
2019-03-31T17:57:18.364Z,0.60
2019-03-31T17:59:48.562Z,0.60
2019-03-31T18:02:18.877Z,0.60
2019-03-31T18:04:49.088Z,0.60
2019-03-31T18:07:19.300Z,0.60
2019-03-31T18:09:49.601Z,0.60
2019-03-31T18:12:19.914Z,0.67
2019-03-31T18:14:50.237Z,0.60
2019-03-31T18:17:20.535Z,0.70
2019-03-31T18:19:50.882Z,0.60
2019-03-31T18:22:21.192Z,0.60
2019-03-31T18:24:51.540Z,0.60
2019-03-31T18:27:21.820Z,0.60
2019-03-31T18:29:52.103Z,0.60
2019-03-31T18:32:22.289Z,0.60
2019-03-31T18:34:52.569Z,0.60
2019-03-31T18:37:22.913Z,0.60
2019-03-31T18:39:53.284Z,0.60
2019-03-31T18:42:23.591Z,0.60
2019-03-31T18:44:53.819Z,0.60
2019-03-31T18:47:24.067Z,0.60
2019-03-31T18:49:54.440Z,0.60
2019-03-31T18:52:24.799Z,0.70
2019-03-31T18:55:16.858Z,0.60
2019-03-31T18:58:02.194Z,0.60
2019-03-31T19:01:00.915Z,0.60
2019-03-31T19:03:52.955Z,0.60
2019-03-31T19:06:30.387Z,0.60
2019-03-31T19:09:09.431Z,0.70
2019-03-31T19:12:07.923Z,0.70
2019-03-31T19:15:03.100Z,0.70
2019-03-31T19:17:51.086Z,0.70
2019-03-31T19:20:39.238Z,0.70
2019-03-31T19:23:40.937Z,0.70
2019-03-31T19:26:48.222Z,0.70
2019-03-31T19:29:23.318Z,0.70
2019-03-31T19:32:31.080Z,0.70
2019-03-31T19:35:22.573Z,0.70
2019-03-31T19:37:58.853Z,0.70
2019-03-31T19:41:03.808Z,0.70
2019-03-31T19:43:45.331Z,0.70
2019-03-31T19:46:41.405Z,0.63
2019-03-31T19:49:22.008Z,0.70
2019-03-31T19:52:09.977Z,0.60
2019-03-31T19:54:58.494Z,0.70
2019-03-31T19:57:56.731Z,0.70
2019-03-31T20:00:58.329Z,0.70
2019-03-31T20:04:02.729Z,0.70
2019-03-31T20:06:54.840Z,0.70
2019-03-31T20:09:49.889Z,0.70
2019-03-31T20:12:30.457Z,0.70
2019-03-31T20:15:18.570Z,0.70
2019-03-31T20:18:16.877Z,0.80
2019-03-31T20:21:15.303Z,0.70
2019-03-31T20:24:04.633Z,0.70
2019-03-31T20:26:52.564Z,0.60
2019-03-31T20:29:54.063Z,0.70
2019-03-31T20:32:32.921Z,0.70
2019-03-31T20:35:08.982Z,0.70
2019-03-31T20:37:51.393Z,0.70
2019-03-31T20:40:55.729Z,0.70
2019-03-31T20:43:54.192Z,0.60
2019-03-31T20:46:24.750Z,0.70
2019-03-31T20:48:55.011Z,0.80
2019-03-31T20:51:25.279Z,0.70
2019-03-31T20:53:55.554Z,0.70
2019-03-31T20:56:25.842Z,0.70
2019-03-31T20:58:56.150Z,0.80
2019-03-31T21:01:26.438Z,0.80
2019-03-31T21:03:56.676Z,0.70
2019-03-31T21:06:26.917Z,0.70
2019-03-31T21:08:57.130Z,0.73
2019-03-31T21:11:27.445Z,0.70
2019-03-31T21:13:57.877Z,0.70
2019-03-31T21:16:28.252Z,0.70
2019-03-31T21:18:58.552Z,0.70
2019-03-31T21:21:28.798Z,0.70
2019-03-31T21:23:59.034Z,0.70
2019-03-31T21:26:29.236Z,0.70
2019-03-31T21:28:59.598Z,0.70
2019-03-31T21:31:29.834Z,0.70
2019-03-31T21:34:00.087Z,0.70
2019-03-31T21:36:30.391Z,0.70
2019-03-31T21:39:00.696Z,0.70
2019-03-31T21:41:30.945Z,0.70
2019-03-31T21:44:01.215Z,0.70
2019-03-31T21:46:31.424Z,0.70
2019-03-31T21:49:01.722Z,0.70
2019-03-31T21:51:32.071Z,0.70
2019-03-31T21:54:02.253Z,0.80
2019-03-31T21:56:32.516Z,0.70
2019-03-31T21:59:02.810Z,0.70
2019-03-31T22:01:33.096Z,0.70
2019-03-31T22:04:03.310Z,0.70
2019-03-31T22:06:33.733Z,0.80
2019-03-31T22:09:07.326Z,0.70
2019-03-31T22:11:37.672Z,0.80
2019-03-31T22:14:10.489Z,0.70
2019-03-31T22:16:39.911Z,0.70
2019-03-31T22:19:10.089Z,0.80
2019-03-31T22:21:40.246Z,0.70
2019-03-31T22:24:10.558Z,0.70
2019-03-31T22:26:40.863Z,0.70
2019-03-31T22:29:11.047Z,0.70
2019-03-31T22:31:41.202Z,0.70
2019-03-31T22:34:11.452Z,0.70
2019-03-31T22:36:41.649Z,0.70
2019-03-31T22:39:11.904Z,0.70
2019-03-31T22:41:42.059Z,0.70
2019-03-31T22:44:12.337Z,0.70
2019-03-31T22:46:53.617Z,0.70
2019-03-31T22:49:14.564Z,0.80
2019-03-31T22:51:44.849Z,0.70
2019-03-31T22:54:15.243Z,0.70
2019-03-31T22:56:45.437Z,0.70
2019-03-31T22:59:15.780Z,0.80
2019-03-31T23:01:46.015Z,0.70
2019-03-31T23:04:16.277Z,0.70
2019-03-31T23:06:46.574Z,0.70
2019-03-31T23:09:16.815Z,0.80
2019-03-31T23:11:47.133Z,0.80
2019-03-31T23:14:17.335Z,0.70
2019-03-31T23:16:47.541Z,0.80
2019-03-31T23:19:17.831Z,0.70
2019-03-31T23:21:48.091Z,0.70
2019-03-31T23:24:18.411Z,0.70
2019-03-31T23:26:48.717Z,0.70
2019-03-31T23:29:18.949Z,0.70
2019-03-31T23:31:49.253Z,0.70
2019-03-31T23:34:19.429Z,0.70
2019-03-31T23:36:49.671Z,0.80
2019-03-31T23:39:19.921Z,0.70
2019-03-31T23:41:50.259Z,0.80
2019-03-31T23:44:20.460Z,0.80
2019-03-31T23:46:50.775Z,0.80
2019-03-31T23:49:21.105Z,0.80
2019-03-31T23:51:51.298Z,0.70
2019-03-31T23:54:21.551Z,0.70
2019-03-31T23:56:51.739Z,0.70
2019-03-31T23:59:22.067Z,0.80
